sensor_id;sensor_type;location;lat;lon;timestamp;pressure;altitude;pressure_sealevel;temperature;humidity
75196;BME280;63773;42.282;22.782;2023-06-10T00:02:23;96008.88;;;19.74;74.04
75196;BME280;63773;42.282;22.782;2023-06-10T00:04:49;95992.03;;;19.79;72.90
75196;BME280;63773;42.282;22.782;2023-06-10T00:07:15;96006.06;;;19.83;73.26
75196;BME280;63773;42.282;22.782;2023-06-10T00:09:40;96006.44;;;19.73;73.43
75196;BME280;63773;42.282;22.782;2023-06-10T00:12:09;96007.59;;;19.63;73.62
75196;BME280;63773;42.282;22.782;2023-06-10T00:14:39;96000.38;;;19.71;73.66
75196;BME280;63773;42.282;22.782;2023-06-10T00:17:06;95994.13;;;19.44;73.98
75196;BME280;63773;42.282;22.782;2023-06-10T00:19:34;95951.56;;;18.72;75.16
75196;BME280;63773;42.282;22.782;2023-06-10T00:22:00;95976.34;;;18.85;75.76
75196;BME280;63773;42.282;22.782;2023-06-10T00:24:26;96005.69;;;18.69;76.95
75196;BME280;63773;42.282;22.782;2023-06-10T00:26:51;96000.97;;;18.78;76.44
75196;BME280;63773;42.282;22.782;2023-06-10T00:29:16;95989.56;;;18.80;75.52
75196;BME280;63773;42.282;22.782;2023-06-10T00:31:44;96000.50;;;19.11;75.28
75196;BME280;63773;42.282;22.782;2023-06-10T00:34:09;95993.28;;;19.27;74.15
75196;BME280;63773;42.282;22.782;2023-06-10T00:36:35;96001.44;;;19.40;73.99
75196;BME280;63773;42.282;22.782;2023-06-10T00:39:01;95978.41;;;19.31;73.50
75196;BME280;63773;42.282;22.782;2023-06-10T00:41:26;95995.91;;;19.40;72.85
75196;BME280;63773;42.282;22.782;2023-06-10T00:43:52;95976.50;;;19.06;72.83
75196;BME280;63773;42.282;22.782;2023-06-10T00:46:18;96003.56;;;19.26;72.93
75196;BME280;63773;42.282;22.782;2023-06-10T00:48:45;96006.19;;;19.40;71.67
75196;BME280;63773;42.282;22.782;2023-06-10T00:51:10;96013.84;;;19.26;71.85
75196;BME280;63773;42.282;22.782;2023-06-10T00:53:39;96005.72;;;18.86;73.24
75196;BME280;63773;42.282;22.782;2023-06-10T00:56:06;96011.09;;;18.91;73.42
75196;BME280;63773;42.282;22.782;2023-06-10T00:58:32;96007.84;;;19.07;72.74
75196;BME280;63773;42.282;22.782;2023-06-10T01:00:57;96011.06;;;18.66;73.16
75196;BME280;63773;42.282;22.782;2023-06-10T01:03:23;96012.38;;;18.94;72.81
75196;BME280;63773;42.282;22.782;2023-06-10T01:05:53;95984.75;;;18.46;73.71
75196;BME280;63773;42.282;22.782;2023-06-10T01:08:35;96008.16;;;18.71;73.85
75196;BME280;63773;42.282;22.782;2023-06-10T01:11:07;96024.13;;;18.65;74.13
75196;BME280;63773;42.282;22.782;2023-06-10T01:13:36;96001.94;;;18.48;74.17
75196;BME280;63773;42.282;22.782;2023-06-10T01:16:02;96012.41;;;18.77;73.43
75196;BME280;63773;42.282;22.782;2023-06-10T01:18:31;96013.19;;;18.69;73.32
75196;BME280;63773;42.282;22.782;2023-06-10T01:20:57;96015.50;;;18.75;73.08
75196;BME280;63773;42.282;22.782;2023-06-10T01:23:23;96013.06;;;18.74;72.74
75196;BME280;63773;42.282;22.782;2023-06-10T01:26:09;96016.81;;;18.86;72.32
75196;BME280;63773;42.282;22.782;2023-06-10T01:28:52;95989.41;;;18.76;72.32
75196;BME280;63773;42.282;22.782;2023-06-10T01:34:08;96011.75;;;18.97;71.90
75196;BME280;63773;42.282;22.782;2023-06-10T01:36:36;96003.28;;;18.85;72.41
75196;BME280;63773;42.282;22.782;2023-06-10T01:39:03;96015.97;;;18.86;72.53
75196;BME280;63773;42.282;22.782;2023-06-10T01:41:30;96010.59;;;18.64;72.24
75196;BME280;63773;42.282;22.782;2023-06-10T01:43:56;96009.13;;;18.66;72.39
75196;BME280;63773;42.282;22.782;2023-06-10T01:46:22;96008.00;;;18.67;71.80
75196;BME280;63773;42.282;22.782;2023-06-10T01:48:48;96016.47;;;18.62;71.78
75196;BME280;63773;42.282;22.782;2023-06-10T01:51:13;96009.88;;;18.41;72.42
75196;BME280;63773;42.282;22.782;2023-06-10T01:53:39;96020.00;;;18.45;72.13
75196;BME280;63773;42.282;22.782;2023-06-10T01:56:04;96022.25;;;18.43;72.21
75196;BME280;63773;42.282;22.782;2023-06-10T01:58:30;96026.47;;;18.32;72.47
75196;BME280;63773;42.282;22.782;2023-06-10T02:00:55;96034.59;;;18.29;73.56
75196;BME280;63773;42.282;22.782;2023-06-10T02:03:21;96033.66;;;18.33;73.29
75196;BME280;63773;42.282;22.782;2023-06-10T02:05:46;96013.59;;;18.28;72.88
75196;BME280;63773;42.282;22.782;2023-06-10T02:08:12;96016.66;;;18.26;72.69
75196;BME280;63773;42.282;22.782;2023-06-10T02:10:37;96009.66;;;18.12;73.19
75196;BME280;63773;42.282;22.782;2023-06-10T02:13:03;96036.22;;;18.21;73.37
75196;BME280;63773;42.282;22.782;2023-06-10T02:15:28;96032.31;;;18.22;73.10
75196;BME280;63773;42.282;22.782;2023-06-10T02:17:54;96040.13;;;18.29;73.41
75196;BME280;63773;42.282;22.782;2023-06-10T02:20:21;96036.97;;;18.05;73.99
75196;BME280;63773;42.282;22.782;2023-06-10T02:22:47;96035.69;;;18.11;73.35
75196;BME280;63773;42.282;22.782;2023-06-10T02:25:12;96023.28;;;18.00;73.42
75196;BME280;63773;42.282;22.782;2023-06-10T02:27:38;96014.25;;;17.85;74.19
75196;BME280;63773;42.282;22.782;2023-06-10T02:30:04;96022.91;;;17.93;74.61
75196;BME280;63773;42.282;22.782;2023-06-10T02:32:29;96031.91;;;18.07;73.54
75196;BME280;63773;42.282;22.782;2023-06-10T02:34:55;96029.00;;;18.03;73.45
75196;BME280;63773;42.282;22.782;2023-06-10T02:37:20;95985.88;;;17.71;73.67
75196;BME280;63773;42.282;22.782;2023-06-10T02:39:46;96031.22;;;17.93;73.75
75196;BME280;63773;42.282;22.782;2023-06-10T02:42:11;96026.72;;;18.05;73.04
75196;BME280;63773;42.282;22.782;2023-06-10T02:44:37;96023.34;;;18.17;72.53
75196;BME280;63773;42.282;22.782;2023-06-10T02:47:03;96025.78;;;18.18;72.40
75196;BME280;63773;42.282;22.782;2023-06-10T02:49:28;96024.81;;;18.14;72.78
75196;BME280;63773;42.282;22.782;2023-06-10T02:51:54;96007.59;;;17.95;72.00
75196;BME280;63773;42.282;22.782;2023-06-10T02:57:41;95997.47;;;17.82;73.12
75196;BME280;63773;42.282;22.782;2023-06-10T03:00:07;96002.16;;;17.73;74.14
75196;BME280;63773;42.282;22.782;2023-06-10T03:02:39;96032.53;;;17.86;74.19
75196;BME280;63773;42.282;22.782;2023-06-10T03:05:05;96000.84;;;17.48;74.37
75196;BME280;63773;42.282;22.782;2023-06-10T03:07:32;96009.44;;;17.60;74.76
75196;BME280;63773;42.282;22.782;2023-06-10T03:09:57;96035.09;;;17.83;74.27
75196;BME280;63773;42.282;22.782;2023-06-10T03:12:23;96040.03;;;17.95;74.37
75196;BME280;63773;42.282;22.782;2023-06-10T03:14:48;96030.53;;;17.87;74.64
75196;BME280;63773;42.282;22.782;2023-06-10T03:17:13;96034.09;;;17.79;74.86
75196;BME280;63773;42.282;22.782;2023-06-10T03:19:39;96036.56;;;17.80;75.31
75196;BME280;63773;42.282;22.782;2023-06-10T03:24:34;96001.69;;;17.79;74.29
75196;BME280;63773;42.282;22.782;2023-06-10T03:27:01;96013.78;;;17.83;74.88
75196;BME280;63773;42.282;22.782;2023-06-10T03:29:27;96030.34;;;17.75;75.32
75196;BME280;63773;42.282;22.782;2023-06-10T03:31:52;96012.56;;;17.76;74.98
75196;BME280;63773;42.282;22.782;2023-06-10T03:34:18;96031.06;;;17.89;74.97
75196;BME280;63773;42.282;22.782;2023-06-10T03:36:43;96025.88;;;17.96;75.13
75196;BME280;63773;42.282;22.782;2023-06-10T03:39:08;96017.78;;;18.08;74.89
75196;BME280;63773;42.282;22.782;2023-06-10T03:41:34;96018.59;;;18.09;74.37
75196;BME280;63773;42.282;22.782;2023-06-10T03:44:00;96019.56;;;18.13;74.27
75196;BME280;63773;42.282;22.782;2023-06-10T03:46:26;96017.44;;;18.10;74.01
75196;BME280;63773;42.282;22.782;2023-06-10T03:48:51;96024.13;;;18.09;74.71
75196;BME280;63773;42.282;22.782;2023-06-10T03:51:16;96026.97;;;18.26;74.10
75196;BME280;63773;42.282;22.782;2023-06-10T03:53:42;96018.13;;;18.24;73.75
75196;BME280;63773;42.282;22.782;2023-06-10T03:56:08;96020.06;;;18.15;74.04
75196;BME280;63773;42.282;22.782;2023-06-10T03:58:33;96024.84;;;18.31;74.12
75196;BME280;63773;42.282;22.782;2023-06-10T04:00:58;96029.41;;;18.36;73.33
75196;BME280;63773;42.282;22.782;2023-06-10T04:03:24;96022.63;;;18.51;73.28
75196;BME280;63773;42.282;22.782;2023-06-10T04:05:49;96011.78;;;18.32;74.12
75196;BME280;63773;42.282;22.782;2023-06-10T04:08:15;96031.56;;;18.48;73.71
75196;BME280;63773;42.282;22.782;2023-06-10T04:10:41;96024.28;;;18.60;73.24
75196;BME280;63773;42.282;22.782;2023-06-10T04:13:06;96032.13;;;18.67;72.65
75196;BME280;63773;42.282;22.782;2023-06-10T04:15:31;96037.50;;;18.72;72.66
75196;BME280;63773;42.282;22.782;2023-06-10T04:18:00;95944.75;;;17.96;72.59
75196;BME280;63773;42.282;22.782;2023-06-10T04:20:28;96029.69;;;18.65;72.84
75196;BME280;63773;42.282;22.782;2023-06-10T04:22:54;96035.06;;;18.70;72.04
75196;BME280;63773;42.282;22.782;2023-06-10T04:25:19;96028.06;;;18.81;72.40
75196;BME280;63773;42.282;22.782;2023-06-10T04:27:45;96027.91;;;18.95;72.13
75196;BME280;63773;42.282;22.782;2023-06-10T04:30:11;95933.44;;;18.40;71.60
75196;BME280;63773;42.282;22.782;2023-06-10T04:32:37;96026.44;;;19.06;71.38
75196;BME280;63773;42.282;22.782;2023-06-10T04:35:02;96027.91;;;19.03;71.92
75196;BME280;63773;42.282;22.782;2023-06-10T04:37:27;96026.13;;;18.99;72.64
75196;BME280;63773;42.282;22.782;2023-06-10T04:39:54;96038.16;;;18.94;71.72
75196;BME280;63773;42.282;22.782;2023-06-10T04:42:19;96035.72;;;18.84;72.17
75196;BME280;63773;42.282;22.782;2023-06-10T04:47:55;96037.50;;;18.72;72.45
75196;BME280;63773;42.282;22.782;2023-06-10T04:50:21;96035.53;;;18.64;73.07
75196;BME280;63773;42.282;22.782;2023-06-10T04:52:46;96036.03;;;18.83;73.08
75196;BME280;63773;42.282;22.782;2023-06-10T04:55:11;95989.41;;;18.68;72.09
75196;BME280;63773;42.282;22.782;2023-06-10T04:57:37;96032.16;;;19.10;72.12
75196;BME280;63773;42.282;22.782;2023-06-10T05:00:03;96028.38;;;19.23;71.19
75196;BME280;63773;42.282;22.782;2023-06-10T05:02:31;96029.34;;;19.27;71.18
75196;BME280;63773;42.282;22.782;2023-06-10T05:04:56;96007.63;;;19.29;71.06
75196;BME280;63773;42.282;22.782;2023-06-10T05:07:23;96027.72;;;19.51;71.38
75196;BME280;63773;42.282;22.782;2023-06-10T05:09:48;96017.53;;;19.81;70.49
75196;BME280;63773;42.282;22.782;2023-06-10T05:12:14;96008.13;;;20.03;70.65
75196;BME280;63773;42.282;22.782;2023-06-10T05:14:39;96027.53;;;20.11;68.01
75196;BME280;63773;42.282;22.782;2023-06-10T05:17:05;96029.94;;;19.84;68.90
75196;BME280;63773;42.282;22.782;2023-06-10T05:19:31;96019.28;;;20.32;71.05
75196;BME280;63773;42.282;22.782;2023-06-10T05:25:18;96033.19;;;20.61;68.70
75196;BME280;63773;42.282;22.782;2023-06-10T05:27:44;96020.84;;;20.71;68.26
75196;BME280;63773;42.282;22.782;2023-06-10T05:30:10;96019.84;;;20.96;69.08
75196;BME280;63773;42.282;22.782;2023-06-10T05:32:36;96027.13;;;21.09;69.58
75196;BME280;63773;42.282;22.782;2023-06-10T05:35:01;96026.44;;;21.33;67.13
75196;BME280;63773;42.282;22.782;2023-06-10T05:37:28;96024.50;;;21.13;67.70
75196;BME280;63773;42.282;22.782;2023-06-10T05:39:54;96016.19;;;21.04;67.62
75196;BME280;63773;42.282;22.782;2023-06-10T05:42:19;96018.34;;;20.99;67.58
75196;BME280;63773;42.282;22.782;2023-06-10T05:44:45;96016.31;;;20.87;67.74
75196;BME280;63773;42.282;22.782;2023-06-10T05:47:10;96020.91;;;20.62;68.22
75196;BME280;63773;42.282;22.782;2023-06-10T05:49:36;96007.34;;;19.94;69.76
75196;BME280;63773;42.282;22.782;2023-06-10T05:52:01;96025.47;;;19.91;70.98
75196;BME280;63773;42.282;22.782;2023-06-10T05:54:26;96013.59;;;20.29;69.34
75196;BME280;63773;42.282;22.782;2023-06-10T05:56:52;96022.47;;;20.72;68.42
75196;BME280;63773;42.282;22.782;2023-06-10T05:59:17;96027.16;;;21.01;68.56
75196;BME280;63773;42.282;22.782;2023-06-10T06:01:43;96028.94;;;21.26;67.42
75196;BME280;63773;42.282;22.782;2023-06-10T06:04:08;96031.38;;;21.07;68.27
75196;BME280;63773;42.282;22.782;2023-06-10T06:06:35;96028.59;;;20.86;67.92
75196;BME280;63773;42.282;22.782;2023-06-10T06:09:00;96027.44;;;20.87;67.26
75196;BME280;63773;42.282;22.782;2023-06-10T06:11:26;96022.97;;;20.95;68.25
75196;BME280;63773;42.282;22.782;2023-06-10T06:13:51;96024.44;;;20.92;68.04
75196;BME280;63773;42.282;22.782;2023-06-10T06:16:17;96016.53;;;20.82;68.45
75196;BME280;63773;42.282;22.782;2023-06-10T06:18:43;96020.78;;;20.80;68.51
75196;BME280;63773;42.282;22.782;2023-06-10T06:21:09;96019.84;;;20.76;68.50
75196;BME280;63773;42.282;22.782;2023-06-10T06:23:34;96016.94;;;20.93;67.77
75196;BME280;63773;42.282;22.782;2023-06-10T06:26:00;96020.81;;;21.21;66.97
75196;BME280;63773;42.282;22.782;2023-06-10T06:28:25;96014.44;;;21.20;67.52
75196;BME280;63773;42.282;22.782;2023-06-10T06:30:56;96025.69;;;21.24;65.81
75196;BME280;63773;42.282;22.782;2023-06-10T06:33:22;96020.38;;;21.52;66.12
75196;BME280;63773;42.282;22.782;2023-06-10T06:35:47;96017.63;;;21.64;65.55
75196;BME280;63773;42.282;22.782;2023-06-10T06:38:38;96024.31;;;20.89;68.13
75196;BME280;63773;42.282;22.782;2023-06-10T06:41:03;96014.88;;;20.81;68.32
75196;BME280;63773;42.282;22.782;2023-06-10T06:43:31;96018.00;;;20.80;69.14
75196;BME280;63773;42.282;22.782;2023-06-10T06:45:57;96006.34;;;21.07;67.08
75196;BME280;63773;42.282;22.782;2023-06-10T06:48:23;95996.88;;;21.41;67.40
75196;BME280;63773;42.282;22.782;2023-06-10T06:50:48;96016.28;;;21.16;67.62
75196;BME280;63773;42.282;22.782;2023-06-10T06:53:14;95983.00;;;21.20;67.30
75196;BME280;63773;42.282;22.782;2023-06-10T06:55:40;95980.19;;;21.08;68.27
75196;BME280;63773;42.282;22.782;2023-06-10T06:58:05;96012.19;;;21.79;66.01
75196;BME280;63773;42.282;22.782;2023-06-10T07:00:31;96009.34;;;21.88;64.95
75196;BME280;63773;42.282;22.782;2023-06-10T07:02:58;95995.78;;;22.11;64.41
75196;BME280;63773;42.282;22.782;2023-06-10T07:05:24;95992.69;;;21.79;64.26
75196;BME280;63773;42.282;22.782;2023-06-10T07:07:53;96013.47;;;21.70;64.24
75196;BME280;63773;42.282;22.782;2023-06-10T07:10:24;96009.81;;;21.24;65.82
75196;BME280;63773;42.282;22.782;2023-06-10T07:12:50;96009.41;;;21.79;65.28
75196;BME280;63773;42.282;22.782;2023-06-10T07:15:16;95997.06;;;22.01;64.95
75196;BME280;63773;42.282;22.782;2023-06-10T07:17:43;95999.59;;;21.94;65.45
75196;BME280;63773;42.282;22.782;2023-06-10T07:20:08;95993.13;;;22.02;65.97
75196;BME280;63773;42.282;22.782;2023-06-10T07:22:54;95994.28;;;22.25;64.96
75196;BME280;63773;42.282;22.782;2023-06-10T07:25:19;95994.06;;;22.42;63.35
75196;BME280;63773;42.282;22.782;2023-06-10T07:27:45;95994.84;;;21.95;64.63
75196;BME280;63773;42.282;22.782;2023-06-10T07:30:11;95996.72;;;22.39;65.36
75196;BME280;63773;42.282;22.782;2023-06-10T07:32:36;95996.72;;;22.75;63.72
75196;BME280;63773;42.282;22.782;2023-06-10T07:35:02;96005.34;;;22.70;62.89
75196;BME280;63773;42.282;22.782;2023-06-10T07:37:27;95992.81;;;23.04;62.45
75196;BME280;63773;42.282;22.782;2023-06-10T07:39:52;95952.88;;;23.16;61.63
75196;BME280;63773;42.282;22.782;2023-06-10T07:42:18;95991.63;;;23.17;61.30
75196;BME280;63773;42.282;22.782;2023-06-10T07:44:43;95988.50;;;23.07;61.85
75196;BME280;63773;42.282;22.782;2023-06-10T07:47:09;95983.00;;;23.22;62.94
75196;BME280;63773;42.282;22.782;2023-06-10T07:49:34;95971.31;;;23.44;62.76
75196;BME280;63773;42.282;22.782;2023-06-10T07:51:59;95980.69;;;24.11;60.53
75196;BME280;63773;42.282;22.782;2023-06-10T07:54:25;95984.19;;;23.49;60.33
75196;BME280;63773;42.282;22.782;2023-06-10T07:56:50;95981.13;;;23.97;60.43
75196;BME280;63773;42.282;22.782;2023-06-10T07:59:18;95985.44;;;23.24;62.25
75196;BME280;63773;42.282;22.782;2023-06-10T08:01:44;95983.75;;;23.47;62.59
75196;BME280;63773;42.282;22.782;2023-06-10T08:04:11;95954.22;;;23.62;61.63
75196;BME280;63773;42.282;22.782;2023-06-10T08:06:36;95970.72;;;23.82;61.05
75196;BME280;63773;42.282;22.782;2023-06-10T08:09:02;95965.13;;;23.82;59.51
75196;BME280;63773;42.282;22.782;2023-06-10T08:11:30;95968.22;;;23.93;61.83
75196;BME280;63773;42.282;22.782;2023-06-10T08:13:57;95928.09;;;24.01;59.92
75196;BME280;63773;42.282;22.782;2023-06-10T08:16:22;95966.97;;;23.90;61.56
75196;BME280;63773;42.282;22.782;2023-06-10T08:18:48;95920.59;;;24.71;59.66
75196;BME280;63773;42.282;22.782;2023-06-10T08:21:15;95953.03;;;24.72;58.60
75196;BME280;63773;42.282;22.782;2023-06-10T08:23:41;95940.84;;;24.64;59.38
75196;BME280;63773;42.282;22.782;2023-06-10T08:26:06;95931.13;;;25.12;57.53
75196;BME280;63773;42.282;22.782;2023-06-10T08:28:31;95929.06;;;25.29;56.05
75196;BME280;63773;42.282;22.782;2023-06-10T08:31:17;95942.75;;;24.95;57.82
75196;BME280;63773;42.282;22.782;2023-06-10T08:33:42;95939.38;;;25.05;56.23
75196;BME280;63773;42.282;22.782;2023-06-10T08:36:08;95934.72;;;25.32;55.96
75196;BME280;63773;42.282;22.782;2023-06-10T08:38:33;95931.41;;;25.26;55.53
75196;BME280;63773;42.282;22.782;2023-06-10T08:41:00;95934.03;;;25.54;55.35
75196;BME280;63773;42.282;22.782;2023-06-10T08:43:42;95930.13;;;26.04;53.52
75196;BME280;63773;42.282;22.782;2023-06-10T08:46:09;95923.97;;;26.18;56.89
75196;BME280;63773;42.282;22.782;2023-06-10T08:48:41;95923.25;;;26.47;55.29
75196;BME280;63773;42.282;22.782;2023-06-10T08:51:09;95926.31;;;26.65;55.19
75196;BME280;63773;42.282;22.782;2023-06-10T08:53:37;95924.09;;;26.77;54.42
75196;BME280;63773;42.282;22.782;2023-06-10T08:56:04;95908.97;;;26.59;53.13
75196;BME280;63773;42.282;22.782;2023-06-10T08:58:32;95924.69;;;26.64;53.82
75196;BME280;63773;42.282;22.782;2023-06-10T09:00:58;95897.03;;;26.13;54.04
75196;BME280;63773;42.282;22.782;2023-06-10T09:03:26;95918.00;;;25.77;54.63
75196;BME280;63773;42.282;22.782;2023-06-10T09:05:52;95907.25;;;26.51;54.95
75196;BME280;63773;42.282;22.782;2023-06-10T09:08:17;95907.69;;;26.79;55.89
75196;BME280;63773;42.282;22.782;2023-06-10T09:10:43;95912.28;;;26.91;52.94
75196;BME280;63773;42.282;22.782;2023-06-10T09:13:08;95896.75;;;27.01;54.71
75196;BME280;63773;42.282;22.782;2023-06-10T09:15:34;95908.13;;;26.81;54.84
75196;BME280;63773;42.282;22.782;2023-06-10T09:17:59;95900.75;;;27.00;53.65
75196;BME280;63773;42.282;22.782;2023-06-10T09:20:25;95903.81;;;26.61;53.51
75196;BME280;63773;42.282;22.782;2023-06-10T09:22:51;95898.47;;;26.79;55.40
75196;BME280;63773;42.282;22.782;2023-06-10T09:25:16;95856.84;;;26.58;52.45
75196;BME280;63773;42.282;22.782;2023-06-10T09:27:49;95806.03;;;26.67;53.60
75196;BME280;63773;42.282;22.782;2023-06-10T09:30:29;95884.63;;;27.60;49.96
75196;BME280;63773;42.282;22.782;2023-06-10T09:33:00;95862.28;;;27.74;49.57
75196;BME280;63773;42.282;22.782;2023-06-10T09:35:27;95856.47;;;28.47;50.50
75196;BME280;63773;42.282;22.782;2023-06-10T09:37:55;95871.81;;;29.22;46.28
75196;BME280;63773;42.282;22.782;2023-06-10T09:40:21;95878.94;;;29.02;45.94
75196;BME280;63773;42.282;22.782;2023-06-10T09:42:56;95855.88;;;28.21;46.72
75196;BME280;63773;42.282;22.782;2023-06-10T09:45:22;95881.84;;;28.54;45.15
75196;BME280;63773;42.282;22.782;2023-06-10T09:47:54;95877.88;;;28.04;43.77
75196;BME280;63773;42.282;22.782;2023-06-10T09:50:21;95881.50;;;27.02;46.26
75196;BME280;63773;42.282;22.782;2023-06-10T09:52:47;95868.44;;;27.49;46.68
75196;BME280;63773;42.282;22.782;2023-06-10T09:55:16;95866.34;;;28.24;44.53
75196;BME280;63773;42.282;22.782;2023-06-10T09:57:42;95857.34;;;28.04;44.45
75196;BME280;63773;42.282;22.782;2023-06-10T10:00:10;95855.97;;;28.35;44.15
75196;BME280;63773;42.282;22.782;2023-06-10T10:02:57;95862.00;;;28.95;43.62
75196;BME280;63773;42.282;22.782;2023-06-10T10:05:22;95862.34;;;28.25;46.20
75196;BME280;63773;42.282;22.782;2023-06-10T10:07:48;95780.69;;;26.93;45.88
75196;BME280;63773;42.282;22.782;2023-06-10T10:10:17;95786.38;;;27.37;46.75
75196;BME280;63773;42.282;22.782;2023-06-10T10:12:48;95864.31;;;27.77;47.07
75196;BME280;63773;42.282;22.782;2023-06-10T10:15:17;95863.88;;;27.38;49.66
75196;BME280;63773;42.282;22.782;2023-06-10T10:17:53;95871.72;;;26.10;55.14
75196;BME280;63773;42.282;22.782;2023-06-10T10:20:25;95887.50;;;25.72;58.15
75196;BME280;63773;42.282;22.782;2023-06-10T10:22:52;95888.78;;;24.60;60.99
75196;BME280;63773;42.282;22.782;2023-06-10T10:25:38;95870.84;;;23.64;61.83
75196;BME280;63773;42.282;22.782;2023-06-10T10:28:08;95883.81;;;23.56;60.89
75196;BME280;63773;42.282;22.782;2023-06-10T10:31:03;95906.44;;;21.59;71.65
75196;BME280;63773;42.282;22.782;2023-06-10T10:33:42;95898.50;;;20.71;74.75
75196;BME280;63773;42.282;22.782;2023-06-10T10:36:11;95906.22;;;20.45;71.70
75196;BME280;63773;42.282;22.782;2023-06-10T10:38:37;95912.75;;;20.49;70.61
75196;BME280;63773;42.282;22.782;2023-06-10T10:41:04;95914.09;;;20.43;70.72
75196;BME280;63773;42.282;22.782;2023-06-10T10:43:30;95917.13;;;20.29;72.60
75196;BME280;63773;42.282;22.782;2023-06-10T10:46:00;95902.47;;;20.61;71.10
75196;BME280;63773;42.282;22.782;2023-06-10T10:48:26;95896.16;;;20.73;70.56
75196;BME280;63773;42.282;22.782;2023-06-10T10:50:57;95913.59;;;20.41;71.99
75196;BME280;63773;42.282;22.782;2023-06-10T10:53:23;95909.28;;;20.52;73.78
75196;BME280;63773;42.282;22.782;2023-06-10T10:56:19;95914.03;;;20.51;76.17
75196;BME280;63773;42.282;22.782;2023-06-10T10:59:06;95912.75;;;21.02;75.79
75196;BME280;63773;42.282;22.782;2023-06-10T11:04:47;95901.66;;;21.59;74.96
75196;BME280;63773;42.282;22.782;2023-06-10T11:07:13;95894.50;;;21.82;73.83
75196;BME280;63773;42.282;22.782;2023-06-10T11:12:40;95879.78;;;22.18;70.58
75196;BME280;63773;42.282;22.782;2023-06-10T11:15:06;95884.75;;;22.89;68.13
75196;BME280;63773;42.282;22.782;2023-06-10T11:17:32;95873.06;;;22.99;67.57
75196;BME280;63773;42.282;22.782;2023-06-10T11:19:58;95872.47;;;23.21;66.66
75196;BME280;63773;42.282;22.782;2023-06-10T11:22:24;95869.63;;;23.33;66.79
75196;BME280;63773;42.282;22.782;2023-06-10T11:24:50;95850.19;;;23.37;67.05
75196;BME280;63773;42.282;22.782;2023-06-10T11:27:22;95857.19;;;23.31;64.70
75196;BME280;63773;42.282;22.782;2023-06-10T11:32:30;95854.88;;;24.46;64.39
75196;BME280;63773;42.282;22.782;2023-06-10T11:34:57;95856.34;;;24.59;61.92
75196;BME280;63773;42.282;22.782;2023-06-10T11:37:22;95843.13;;;25.13;59.76
75196;BME280;63773;42.282;22.782;2023-06-10T11:39:52;95847.53;;;26.02;62.19
75196;BME280;63773;42.282;22.782;2023-06-10T11:42:19;95838.72;;;26.26;58.18
75196;BME280;63773;42.282;22.782;2023-06-10T11:44:51;95831.16;;;26.86;56.70
75196;BME280;63773;42.282;22.782;2023-06-10T11:47:18;95844.47;;;26.63;54.77
75196;BME280;63773;42.282;22.782;2023-06-10T11:49:44;95843.25;;;26.34;50.81
75196;BME280;63773;42.282;22.782;2023-06-10T11:52:10;95804.50;;;26.73;50.89
75196;BME280;63773;42.282;22.782;2023-06-10T11:54:37;95841.75;;;26.40;50.83
75196;BME280;63773;42.282;22.782;2023-06-10T11:57:02;95806.44;;;26.69;47.74
75196;BME280;63773;42.282;22.782;2023-06-10T11:59:33;95820.84;;;27.30;49.96
75196;BME280;63773;42.282;22.782;2023-06-10T12:02:01;95838.97;;;27.00;49.69
75196;BME280;63773;42.282;22.782;2023-06-10T12:04:47;95795.53;;;26.30;49.04
75196;BME280;63773;42.282;22.782;2023-06-10T12:07:22;95809.97;;;26.62;48.53
75196;BME280;63773;42.282;22.782;2023-06-10T12:09:58;95811.88;;;26.55;50.43
75196;BME280;63773;42.282;22.782;2023-06-10T12:12:24;95805.47;;;26.84;49.66
75196;BME280;63773;42.282;22.782;2023-06-10T12:19:58;95800.44;;;27.37;47.41
75196;BME280;63773;42.282;22.782;2023-06-10T12:22:24;95763.53;;;27.02;47.68
75196;BME280;63773;42.282;22.782;2023-06-10T12:25:02;95798.50;;;27.08;47.58
75196;BME280;63773;42.282;22.782;2023-06-10T12:27:32;95804.34;;;27.25;46.02
75196;BME280;63773;42.282;22.782;2023-06-10T12:30:00;95789.72;;;27.49;47.44
75196;BME280;63773;42.282;22.782;2023-06-10T12:32:41;95791.41;;;27.17;44.75
75196;BME280;63773;42.282;22.782;2023-06-10T12:35:08;95795.03;;;26.84;46.19
75196;BME280;63773;42.282;22.782;2023-06-10T12:37:33;95789.19;;;27.37;43.66
75196;BME280;63773;42.282;22.782;2023-06-10T12:40:01;95714.22;;;26.71;47.14
75196;BME280;63773;42.282;22.782;2023-06-10T12:42:28;95785.25;;;27.41;47.15
75196;BME280;63773;42.282;22.782;2023-06-10T12:44:55;95780.16;;;27.58;43.52
75196;BME280;63773;42.282;22.782;2023-06-10T12:47:38;95770.50;;;27.55;43.68
75196;BME280;63773;42.282;22.782;2023-06-10T12:50:05;95737.63;;;27.59;43.39
75196;BME280;63773;42.282;22.782;2023-06-10T12:52:31;95759.78;;;28.19;41.85
75196;BME280;63773;42.282;22.782;2023-06-10T12:54:58;95757.47;;;28.35;41.78
75196;BME280;63773;42.282;22.782;2023-06-10T12:57:24;95751.94;;;28.59;39.50
75196;BME280;63773;42.282;22.782;2023-06-10T12:59:50;95754.38;;;28.61;41.43
75196;BME280;63773;42.282;22.782;2023-06-10T13:02:27;95738.81;;;28.92;41.09
75196;BME280;63773;42.282;22.782;2023-06-10T13:04:52;95762.25;;;29.10;38.65
75196;BME280;63773;42.282;22.782;2023-06-10T13:07:18;95755.44;;;29.25;40.01
75196;BME280;63773;42.282;22.782;2023-06-10T13:09:44;95725.25;;;29.61;38.68
75196;BME280;63773;42.282;22.782;2023-06-10T13:12:14;95757.88;;;29.48;36.49
75196;BME280;63773;42.282;22.782;2023-06-10T13:14:39;95755.50;;;30.13;39.91
75196;BME280;63773;42.282;22.782;2023-06-10T13:17:05;95727.72;;;29.94;38.79
75196;BME280;63773;42.282;22.782;2023-06-10T13:19:33;95713.97;;;28.22;40.92
75196;BME280;63773;42.282;22.782;2023-06-10T13:21:58;95741.34;;;29.36;42.41